createdAt,value
2022-11-24T00:14:35.701Z,1007.8
2022-11-24T00:29:31.431Z,1007.8
2022-11-24T00:44:27.656Z,1007.8
2022-11-24T00:59:23.984Z,1007.9
2022-11-24T01:14:20.221Z,1008.2
2022-11-24T01:29:16.588Z,1008.3
2022-11-24T01:44:12.781Z,1008.6
2022-11-24T01:59:08.616Z,1008.6
2022-11-24T02:14:04.961Z,1008.6
2022-11-24T02:29:01.403Z,1008.7
2022-11-24T02:43:57.828Z,1008.7
2022-11-24T02:58:54.344Z,1008.8
2022-11-24T03:13:50.059Z,1008.7
2022-11-24T03:28:46.172Z,1008.6
2022-11-24T03:43:44.147Z,1008.9
2022-11-24T03:58:38.568Z,1008.9
2022-11-24T04:13:34.922Z,1009
2022-11-24T04:28:30.763Z,1009.2
2022-11-24T04:43:26.896Z,1009.2
2022-11-24T04:58:23.329Z,1009.5
2022-11-24T05:13:20.250Z,1009.6
2022-11-24T05:28:16.110Z,1009.5
2022-11-24T05:43:12.037Z,1009.7
2022-11-24T05:58:08.097Z,1009.7
2022-11-24T06:13:04.434Z,1010
2022-11-24T06:28:00.607Z,1010.1
2022-11-24T06:42:57.162Z,1010.3
2022-11-24T06:57:53.689Z,1010.5
2022-11-24T07:12:49.600Z,1010.8
2022-11-24T07:27:46.010Z,1011.1
2022-11-24T07:42:42.314Z,1011.4
2022-11-24T07:57:38.905Z,1011.7
2022-11-24T08:12:35.253Z,1011.8
2022-11-24T08:27:31.691Z,1012
2022-11-24T08:42:27.750Z,1012.2
2022-11-24T08:57:23.945Z,1012.3
2022-11-24T09:12:20.269Z,1012.6
2022-11-24T09:27:17.185Z,1012.7
2022-11-24T09:42:14.204Z,1012.9
2022-11-24T09:57:11.008Z,1013.1
2022-11-24T10:12:07.599Z,1013.1
2022-11-24T10:27:03.920Z,1013.3
2022-11-24T10:42:00.662Z,1013.5
2022-11-24T10:56:56.973Z,1013.5
2022-11-24T11:11:53.721Z,1013.5
2022-11-24T11:26:50.135Z,1013.6
2022-11-24T11:41:46.387Z,1013.6
2022-11-24T11:56:42.659Z,1013.7
2022-11-24T12:11:39.255Z,1013.7
2022-11-24T12:26:35.627Z,1013.7
2022-11-24T12:41:47.519Z,1013.8
2022-11-24T12:56:28.537Z,1013.7
2022-11-24T13:11:25.193Z,1013.6
2022-11-24T13:26:21.245Z,1013.7
2022-11-24T13:41:28.369Z,1013.8
2022-11-24T13:56:14.043Z,1013.9
2022-11-24T14:11:10.769Z,1014
2022-11-24T14:26:07.203Z,1014.1
2022-11-24T14:41:05.698Z,1014
2022-11-24T14:55:59.323Z,1014
2022-11-24T15:10:55.708Z,1014.2
2022-11-24T15:25:51.727Z,1014.4
2022-11-24T15:40:48.300Z,1014.6
2022-11-24T15:55:43.708Z,1014.5
2022-11-24T16:10:39.541Z,1014.6
2022-11-24T16:25:35.508Z,1014.8
2022-11-24T16:40:31.900Z,1014.7
2022-11-24T16:55:27.540Z,1014.8
2022-11-24T17:10:23.722Z,1014.7
2022-11-24T17:25:19.692Z,1014.7
2022-11-24T17:40:27.707Z,1015.1
2022-11-24T17:55:11.905Z,1015.1
2022-11-24T18:10:07.969Z,1015.2
2022-11-24T18:25:03.848Z,1015.1
2022-11-24T18:39:59.992Z,1015.1
2022-11-24T18:54:55.343Z,1015.1
2022-11-24T19:09:51.134Z,1014.9
2022-11-24T19:24:47.348Z,1015
2022-11-24T19:39:43.229Z,1015
2022-11-24T19:54:39.393Z,1015
2022-11-24T20:09:35.641Z,1015
2022-11-24T20:24:31.695Z,1015
2022-11-24T20:39:27.665Z,1015.2
2022-11-24T20:54:23.930Z,1015.1
2022-11-24T21:09:19.474Z,1015
2022-11-24T21:24:16.200Z,1015.1
2022-11-24T21:39:12.485Z,1015
2022-11-24T21:54:08.676Z,1015
2022-11-24T23:08:49.567Z,1014.8
2022-11-24T23:23:45.602Z,1014.8
2022-11-24T23:38:41.653Z,1014.7
2022-11-24T23:53:38.271Z,1014.6
